VA27 weather

Moorefield's Airstrip
Critz, Virginia, United States

Public forecast

Using degrees Fahrenheit for public forecast. Weather courtesy of forecast.io.

METAR (pilot weather report)

Closest report is Blue Ridge Airport, 7.2 nm (13.3 km) NE. Retrieved 2019/07/21 20:41 UTC (7 minutes ago):

KMTV 212041Z AUTO 34005KT 10SM CLR 29/22 A3002 RMK AO2

TAF (pilot weather forecast)

Closest forecast is Smith Reynolds Airport, 25.9 nm (48.0 km) S. Retrieved 2019/07/21 18:24 UTC (2 hours ago):

TAF KINT 211723Z 2118/2218 23008G15KT P6SM FEW250 FM220000 VRB05KT P6SM FEW200 FM221500 22008G13KT P6SM FEW250